Time;durP1;ratioP1;P1;durP2;ratioP2;P2;SDS_P1;SDS_P2;PMS_P1;PMS_P2;Temp;Humidity;BMP_temperature;BMP_pressure;BME280_temperature;BME280_humidity;BME280_pressure;Samples;Min_cycle;Max_cycle;Signal;HPM_P1;HPM_P2
2021/04/14 19:02:46;;;;;;;3.85;1.20;;;;;;;;;;5062770;28;20399;-65
2021/04/14 19:05:12;;;;;;;6.45;1.30;;;;;;;;;;5068192;28;20035;-67
2021/04/14 19:07:38;;;;;;;6.15;1.80;;;;;;;;;;5065209;27;20387;-64
2021/04/14 19:10:08;;;;;;;12.23;1.85;;;;;;;;;;5071567;28;20024;-66
2021/04/14 19:12:34;;;;;;;11.68;1.65;;;;;;;;;;5054911;28;20021;-66
2021/04/14 19:15:00;;;;;;;3.53;1.40;;;;;;;;;;5061996;28;20028;-66
2021/04/14 19:17:26;;;;;;;13.85;1.92;;;;;;;;;;5053473;28;20297;-68
2021/04/14 19:25:52;;;;;;;7.82;5.03;;;;;;;;;;5064861;28;20461;-70
2021/04/14 19:28:21;;;;;;;10.82;6.18;;;;;;;;;;5063669;28;20555;-70
2021/04/14 19:30:47;;;;;;;12.32;7.82;;;;;;;;;;5064152;28;20039;-70
2021/04/14 19:33:14;;;;;;;7.35;4.60;;;;;;;;;;5084675;28;20483;-70
2021/04/14 19:35:40;;;;;;;10.95;5.95;;;;;;;;;;5074110;28;20031;-70
2021/04/14 19:38:07;;;;;;;6.65;4.55;;;;;;;;;;5064655;28;20237;-69
2021/04/14 19:40:33;;;;;;;7.90;4.28;;;;;;;;;;5056456;28;20063;-70
2021/04/14 19:42:59;;;;;;;7.47;3.90;;;;;;;;;;5055399;28;20033;-69
2021/04/14 19:47:06;;;;;;;6.82;4.00;;;;;;;0.05;72.65;99483.31;5038007;28;20367;-71
2021/04/14 19:49:31;;;;;;;10.85;5.97;;;;;;;-0.16;73.95;99487.22;5041782;28;20048;-73
2021/04/14 19:51:57;;;;;;;8.80;5.35;;;;;;;-0.43;75.52;99474.69;5038974;28;20049;-72
2021/04/14 19:54:24;;;;;;;9.55;4.63;;;;;;;-0.54;76.05;99493.28;5032430;28;20133;-70
2021/04/14 19:56:50;;;;;;;7.90;5.30;;;;;;;-0.78;77.02;99493.66;5059334;28;20036;-71
2021/04/14 19:59:15;;;;;;;8.98;5.22;;;;;;;-1.00;77.82;99494.88;5063271;28;20047;-71
2021/04/14 20:01:40;;;;;;;6.38;4.45;;;;;;;-1.18;78.15;99504.69;5059354;28;20444;-70
2021/04/14 20:04:07;;;;;;;10.10;5.28;;;;;;;-1.23;79.62;99499.47;5047443;28;20385;-70
2021/04/14 20:06:32;;;;;;;6.38;4.25;;;;;;;-1.32;80.77;99498.38;5053010;28;20052;-70
2021/04/14 20:08:59;;;;;;;7.50;4.15;;;;;;;-1.47;80.84;99504.88;5057780;28;20075;-70
2021/04/14 20:11:25;;;;;;;4.75;3.65;;;;;;;-1.52;81.62;99505.59;5065036;28;20060;-70
2021/04/14 20:13:50;;;;;;;5.78;3.60;;;;;;;-1.70;81.42;99507.72;5072694;28;20056;-71
2021/04/14 20:16:15;;;;;;;4.10;2.72;;;;;;;-1.84;81.71;99508.22;5055297;28;20048;-69
2021/04/14 20:18:41;;;;;;;5.50;3.10;;;;;;;-1.89;82.38;99509.78;5057406;28;20035;-70
2021/04/14 20:21:06;;;;;;;5.35;3.10;;;;;;;-1.96;83.02;99501.88;5052928;28;20601;-73
2021/04/14 20:23:32;;;;;;;4.55;3.22;;;;;;;-2.04;83.31;99505.94;5051749;28;20502;-70
2021/04/14 20:25:57;;;;;;;4.78;3.03;;;;;;;-2.20;84.21;99486.72;5033939;28;88908;-70
2021/04/14 20:28:23;;;;;;;5.10;3.20;;;;;;;-2.12;84.54;99511.72;5044611;28;20045;-72
2021/04/14 20:30:50;;;;;;;4.47;3.03;;;;;;;-2.26;84.54;99502.78;5035642;28;20036;-72
2021/04/14 20:33:17;;;;;;;6.60;3.08;;;;;;;-2.35;84.56;99504.25;5038366;28;20037;-70
2021/04/14 20:35:42;;;;;;;5.07;3.05;;;;;;;-2.41;84.72;99512.59;5041328;28;20033;-71
2021/04/14 20:38:10;;;;;;;4.28;2.75;;;;;;;-2.49;85.11;99514.09;5041589;28;20048;-71
2021/04/14 20:40:36;;;;;;;6.55;3.13;;;;;;;-2.50;86.39;99504.69;5035442;28;20026;-70
2021/04/14 20:43:01;;;;;;;5.00;3.53;;;;;;;-2.53;85.77;99505.47;5026158;28;20033;-71
2021/04/14 20:45:28;;;;;;;4.20;3.00;;;;;;;-2.59;86.10;99502.72;5034507;28;20025;-72
2021/04/14 20:47:53;;;;;;;3.55;2.55;;;;;;;-2.69;85.95;99495.59;5046777;28;20060;-70
2021/04/14 20:50:31;;;;;;;5.53;3.15;;;;;;;-2.67;86.74;99505.88;5041708;28;20098;-70
2021/04/14 20:52:57;;;;;;;5.85;3.22;;;;;;;-2.76;86.73;99490.25;5052216;28;20112;-70
2021/04/14 20:55:24;;;;;;;7.95;3.60;;;;;;;-2.63;86.78;99495.78;5043896;28;20104;-71
2021/04/14 20:57:49;;;;;;;5.57;3.57;;;;;;;-2.76;86.30;99498.81;5035675;28;20033;-71
2021/04/14 21:00:16;;;;;;;6.50;3.35;;;;;;;-2.84;87.03;99500.25;5024696;28;20594;-70
2021/04/14 21:02:41;;;;;;;6.65;4.68;;;;;;;-2.83;86.63;99507.13;5017307;28;20103;-70
2021/04/14 21:05:09;;;;;;;10.45;5.40;;;;;;;-2.67;87.44;99505.88;5026665;28;20418;-70
2021/04/14 21:07:34;;;;;;;;;;;;;;;-2.65;87.40;99505.09;5024390;28;20029;-70
2021/04/14 21:10:00;;;;;;;8.13;5.30;;;;;;;-2.70;87.19;99506.66;5025462;28;20201;-71
2021/04/14 21:12:26;;;;;;;10.43;5.22;;;;;;;-2.64;87.86;99509.41;5030279;28;20410;-72
2021/04/14 21:14:51;;;;;;;11.20;6.20;;;;;;;-2.61;87.50;99499.25;5031502;28;20040;-72
2021/04/14 21:17:17;;;;;;;7.68;4.90;;;;;;;-2.86;87.07;99492.53;5028516;28;20086;-71
2021/04/14 21:19:43;;;;;;;10.13;5.55;;;;;;;-2.80;87.96;99503.78;5029814;28;20514;-71
2021/04/14 21:22:08;;;;;;;7.88;5.20;;;;;;;-2.96;87.80;99505.00;5016824;28;20038;-71
2021/04/14 21:24:34;;;;;;;9.50;5.63;;;;;;;-3.00;87.40;99504.06;5029199;28;20029;-71
2021/04/14 21:26:59;;;;;;;11.38;5.10;;;;;;;-2.99;88.13;99492.13;5029590;28;20546;-71
2021/04/14 21:29:25;;;;;;;7.63;4.43;;;;;;;-3.06;87.69;99503.88;5010851;28;20535;-70
2021/04/14 21:31:51;;;;;;;7.22;4.30;;;;;;;-3.11;88.70;99490.06;5022430;28;20063;-71
2021/04/14 21:34:16;;;;;;;5.93;3.55;;;;;;;-3.12;88.14;99498.56;5028590;28;20040;-69
2021/04/14 21:36:42;;;;;;;8.85;5.22;;;;;;;-3.23;87.81;99503.34;5019556;28;20392;-70
2021/04/14 21:39:08;;;;;;;9.55;5.35;;;;;;;-3.08;88.46;99509.75;5026181;28;20103;-70
2021/04/14 21:41:34;;;;;;;6.80;4.63;;;;;;;-3.11;88.39;99504.56;5018363;28;20026;-70
2021/04/14 21:43:59;;;;;;;7.85;5.18;;;;;;;-3.04;88.84;99506.47;5017964;28;20064;-70
2021/04/14 21:46:24;;;;;;;7.85;4.47;;;;;;;-3.12;88.61;99508.78;5028937;28;20030;-70
2021/04/14 21:48:50;;;;;;;7.97;5.20;;;;;;;-3.12;88.48;99503.69;5026607;28;20048;-70
2021/04/14 21:51:15;;;;;;;7.55;4.75;;;;;;;-3.04;88.79;99514.13;5010688;28;20026;-70
2021/04/14 21:53:41;;;;;;;10.52;5.05;;;;;;;-3.09;88.38;99498.66;5017099;28;20434;-70
2021/04/14 21:56:06;;;;;;;9.93;4.78;;;;;;;-3.07;88.86;99504.69;5029977;28;20066;-69
2021/04/14 21:58:32;;;;;;;7.57;4.53;;;;;;;-3.20;88.41;99503.44;5026189;28;20029;-70
2021/04/14 22:00:57;;;;;;;7.68;4.38;;;;;;;-3.18;89.27;99500.91;5025171;28;20037;-70
2021/04/14 22:03:27;;;;;;;8.50;3.70;;;;;;;-3.31;88.89;99492.00;5025638;28;20438;-70
2021/04/14 22:05:54;;;;;;;4.35;3.35;;;;;;;-3.41;88.82;99502.75;5025433;28;20036;-70
2021/04/14 22:08:22;;;;;;;5.78;3.53;;;;;;;-3.41;88.21;99505.31;5026014;28;20269;-70
2021/04/14 22:10:48;;;;;;;9.35;3.92;;;;;;;-3.44;88.67;99504.34;5029709;28;20021;-69
2021/04/14 22:13:14;;;;;;;9.05;4.45;;;;;;;-3.54;88.59;99500.63;5024121;28;20030;-70
2021/04/14 22:15:39;;;;;;;7.50;4.13;;;;;;;-3.78;88.63;99484.47;5031072;28;20380;-70
2021/04/14 22:18:07;;;;;;;6.55;4.35;;;;;;;-3.72;88.76;99500.91;5024039;28;20025;-70
2021/04/14 22:20:35;;;;;;;7.55;4.50;;;;;;;-3.65;89.23;99505.38;5029446;28;20487;-70
2021/04/14 22:23:00;;;;;;;;;;;;;;;-3.62;89.92;99507.16;5029652;28;20522;-70
2021/04/14 22:25:29;;;;;;;7.57;3.92;;;;;;;-3.65;89.60;99499.38;5028613;28;19921;-69
2021/04/14 22:27:57;;;;;;;6.82;4.05;;;;;;;-3.68;88.92;99499.31;5029856;28;20395;-70
2021/04/14 22:30:27;;;;;;;9.65;4.32;;;;;;;-3.77;89.03;99499.00;5028148;28;20048;-69
2021/04/14 22:32:53;;;;;;;7.75;4.30;;;;;;;-3.81;89.72;99503.13;5017194;28;20036;-69
2021/04/14 22:35:21;;;;;;;7.40;3.97;;;;;;;-3.84;89.27;99508.16;5026690;28;20030;-70
2021/04/14 22:37:46;;;;;;;5.47;4.03;;;;;;;-3.84;89.75;99508.16;5028391;28;20501;-71
2021/04/14 22:40:16;;;;;;;6.47;4.07;;;;;;;-3.88;88.99;99505.44;5028548;28;20032;-71
2021/04/14 22:42:41;;;;;;;13.77;5.45;;;;;;;-3.79;90.06;99508.28;5027660;28;20029;-70
2021/04/14 22:45:07;;;;;;;7.30;4.75;;;;;;;-3.75;89.34;99515.25;5028576;28;20423;-69
2021/04/14 22:47:33;;;;;;;8.57;5.28;;;;;;;-3.86;89.67;99508.91;5027931;28;20566;-71
2021/04/14 22:49:58;;;;;;;11.50;5.18;;;;;;;-3.86;89.95;99512.34;5025147;28;20115;-70
2021/04/14 22:52:24;;;;;;;7.18;4.88;;;;;;;-3.84;89.23;99512.41;5026377;28;20199;-71
2021/04/14 22:54:49;;;;;;;6.35;4.45;;;;;;;-3.79;89.50;99508.28;5036212;28;20053;-70
2021/04/14 22:57:14;;;;;;;6.63;3.95;;;;;;;-3.89;89.44;99502.00;5028383;28;20124;-70
2021/04/14 22:59:40;;;;;;;7.28;4.55;;;;;;;-3.88;90.30;99502.88;5028265;28;20449;-70
2021/04/14 23:02:05;;;;;;;7.75;4.10;;;;;;;-3.95;89.91;99502.66;5022161;28;20040;-70
2021/04/14 23:04:31;;;;;;;7.03;4.35;;;;;;;-4.05;89.35;99500.63;5030596;28;20031;-70
2021/04/14 23:06:57;;;;;;;5.75;3.58;;;;;;;-4.08;89.88;99503.06;5027518;28;20487;-70
2021/04/14 23:09:22;;;;;;;7.43;3.78;;;;;;;-4.35;89.64;99467.22;5023423;28;20124;-71
2021/04/14 23:11:48;;;;;;;7.80;4.00;;;;;;;-4.23;89.94;99494.88;5010907;28;20117;-70
2021/04/14 23:14:13;;;;;;;8.70;4.95;;;;;;;-4.01;89.71;99499.06;5017077;28;20033;-71
2021/04/14 23:16:39;;;;;;;8.63;4.82;;;;;;;-4.11;90.00;99496.97;5029383;28;20117;-71
2021/04/14 23:19:05;;;;;;;11.98;4.88;;;;;;;-4.09;89.98;99503.00;5027950;28;20065;-70
2021/04/14 23:21:31;;;;;;;8.32;4.32;;;;;;;-4.24;90.13;99490.56;5030108;28;20060;-71
2021/04/14 23:23:56;;;;;;;7.13;4.20;;;;;;;-4.23;90.26;99502.53;5032966;28;20029;-71
2021/04/14 23:26:22;;;;;;;8.65;5.03;;;;;;;-4.12;89.94;99501.22;5042039;28;20033;-70
2021/04/14 23:28:48;;;;;;;7.47;4.70;;;;;;;-4.15;89.81;99496.03;5039727;28;20441;-70
2021/04/14 23:31:14;;;;;;;6.95;4.53;;;;;;;-4.18;89.59;99501.00;5031086;28;20048;-73
2021/04/14 23:33:39;;;;;;;11.32;4.13;;;;;;;-4.20;89.82;99491.56;5017930;28;20030;-68
2021/04/14 23:36:06;;;;;;;9.13;4.82;;;;;;;-4.21;89.85;99494.94;5008806;28;20057;-70
2021/04/14 23:38:31;;;;;;;9.82;4.50;;;;;;;-4.23;89.67;99489.75;5029616;28;20029;-70
2021/04/14 23:40:57;;;;;;;6.20;3.92;;;;;;;-4.32;90.06;99490.31;5011900;28;20390;-70
2021/04/14 23:43:25;;;;;;;5.68;3.80;;;;;;;-4.36;89.51;99485.03;5028392;28;20053;-71
2021/04/14 23:45:51;;;;;;;6.65;3.42;;;;;;;-4.43;90.14;99483.94;5021049;28;20368;-71
2021/04/14 23:48:18;;;;;;;7.00;3.90;;;;;;;-4.51;90.10;99489.59;5025643;28;20052;-71
2021/04/14 23:50:47;;;;;;;6.32;4.03;;;;;;;-4.51;90.69;99494.69;5028400;28;20501;-69
2021/04/14 23:53:14;;;;;;;5.53;4.00;;;;;;;-4.62;90.23;99472.22;5017195;28;20118;-72
2021/04/14 23:55:40;;;;;;;6.35;4.35;;;;;;;-4.47;90.33;99488.91;5023172;28;20026;-70
2021/04/14 23:58:17;;;;;;;8.48;4.30;;;;;;;-4.54;90.23;99484.38;5027372;28;20048;-71
